Siam — SGIP — position and weather

sailwx.info

Track history (hours):
 
Tides and Currents Weather Stations Pressure Air Temp Water Temp Dewpoint Dewpoint Depression Visibility Wind Speed Wind Dir Waves Ship Positions

Siam

Last reported at 2018-Apr-19 11:58 UTC. Time now 2018-Apr-20 10:49 UTC.
Position N 55°60' E 012°45'.

Length 22 m.

Type: Passenger vessel. MMSI: 265572320.

Date/timePositionNaut miles runAvg speedWind from/ knotsBaromVisibWave heightAir tempDewpointWater temp
2018-Apr-19 11:58N 55°60' E 012°45'2 3.3
2018-Apr-19 11:21N 55°59' E 012°41'1 3.7
2018-Apr-19 11:00N 55°57' E 012°43'1 2.8
2018-Apr-19 10:30N 55°56' E 012°43'3 5.2
2018-Apr-19 09:59N 55°56' E 012°39'1 1.2
2018-Apr-19 09:30N 55°56' E 012°40'2 3.6
2018-Apr-19 09:00N 55°57' E 012°41'1 2.3
2018-Apr-19 08:30N 55°59' E 012°41'0 0.1
2018-Apr-19 07:57N 55°59' E 012°42'0 0.3
2018-Apr-19 07:30N 55°59' E 012°41'0 0.0
2018-Apr-19 06:59N 55°59' E 012°41'0 0.2
2018-Apr-19 06:30N 55°59' E 012°41'2 0.7
2018-Apr-19 03:40N 55°60' E 012°45'0 0.0
2018-Apr-19 03:22N 55°60' E 012°45'0 0.0
2018-Apr-19 02:58N 55°60' E 012°45'0 0.0
2018-Apr-19 02:28N 55°60' E 012°45'0 0.0
2018-Apr-19 01:37N 55°60' E 012°45'0 0.0
2018-Apr-19 01:16N 55°60' E 012°45'0 0.0
2018-Apr-19 00:52N 55°60' E 012°45'0 0.0
2018-Apr-19 00:28N 55°60' E 012°45'0 0.0
2018-Apr-18 23:58N 55°60' E 012°45'0 0.0
2018-Apr-18 22:04N 55°60' E 012°45'0 0.0
2018-Apr-18 13:45N 55°60' E 012°45'0 0.0
2018-Apr-18 11:41N 55°60' E 012°45'0 0.0
2018-Apr-18 11:17N 55°60' E 012°45'0 0.0
2018-Apr-18 10:59N 55°60' E 012°45'0 0.0
2018-Apr-18 09:59N 55°60' E 012°45'  
2018-Apr-15 13:22N 55°60' E 012°45'0 0.2
2018-Apr-15 13:00N 55°60' E 012°45'4 8.1
2018-Apr-15 12:31N 55°56' E 012°40'1 2.6
2018-Apr-15 11:58N 55°55' E 012°40'0 0.6
2018-Apr-15 11:28N 55°55' E 012°39'0 0.3
2018-Apr-15 10:57N 55°55' E 012°39'0 0.2
2018-Apr-15 10:29N 55°55' E 012°39'0 0.1
2018-Apr-15 09:55N 55°55' E 012°39'0 0.3
2018-Apr-15 09:30N 55°55' E 012°39'2 4.7
2018-Apr-15 09:00N 55°55' E 012°44'0 0.6
2018-Apr-15 08:30N 55°55' E 012°44'3 4.7
2018-Apr-15 07:58N 55°57' E 012°45'0 0.1
2018-Apr-15 07:25N 55°57' E 012°45'0 0.1
2018-Apr-15 06:47N 55°57' E 012°45'0 0.3
2018-Apr-15 06:30N 55°57' E 012°45'2 0.1
2018-Apr-14 10:05N 55°60' E 012°45'1 7.3
2018-Apr-14 09:59N 55°59' E 012°44'4 7.2
2018-Apr-14 09:29N 55°56' E 012°40'0 0.2
2018-Apr-14 09:00N 55°56' E 012°40'1 2.3
2018-Apr-14 08:30N 55°56' E 012°42'0 0.8
2018-Apr-14 07:59N 55°57' E 012°41'0 0.7
2018-Apr-14 07:30N 55°57' E 012°42'0 1.0
2018-Apr-14 07:00N 55°58' E 012°42'2 3.4
2018-Apr-14 06:27N 55°60' E 012°42'1 1.0
2018-Apr-14 04:57N 55°60' E 012°45'0 0.0
2018-Apr-14 04:24N 55°60' E 012°45'0 0.0
2018-Apr-14 03:54N 55°60' E 012°45'0 0.0
2018-Apr-14 03:03N 55°60' E 012°45'0 0.1
2018-Apr-14 03:00N 55°60' E 012°45'0 0.0
2018-Apr-14 02:27N 55°60' E 012°45'0 0.0
2018-Apr-14 01:51N 55°60' E 012°45'0 0.0
2018-Apr-14 01:27N 55°60' E 012°45'0 0.0
2018-Apr-14 00:39N 55°60' E 012°45'0 0.0
2018-Apr-13 23:21N 55°60' E 012°45'0 0.0
2018-Apr-13 20:39N 55°60' E 012°45'0 0.0
2018-Apr-13 20:15N 55°60' E 012°45'0 0.0
2018-Apr-13 19:21N 55°60' E 012°45'0 0.0
2018-Apr-13 14:27N 55°60' E 012°45'0 0.0
2018-Apr-13 13:12N 55°60' E 012°45'0 0.2
2018-Apr-13 12:47N 55°59' E 012°45'1 4.8
2018-Apr-13 12:29N 55°60' E 012°42'1 2.8
2018-Apr-13 12:00N 55°59' E 012°44'1 2.8
2018-Apr-13 11:29N 55°58' E 012°45'0 0.5
2018-Apr-13 11:00N 55°57' E 012°45'0 0.4
2018-Apr-13 10:28N 55°57' E 012°45'0 0.3
2018-Apr-13 10:00N 55°57' E 012°45'0 0.1
2018-Apr-13 09:29N 55°57' E 012°45'1 2.1
2018-Apr-13 08:59N 55°56' E 012°46'0 0.2
2018-Apr-13 08:26N 55°56' E 012°46'0 0.0
2018-Apr-13 07:46N 55°57' E 012°46'1 2.7
2018-Apr-13 07:15N 55°55' E 012°46'2 2.4
2018-Apr-13 06:19N 55°57' E 012°45'2 0.2
2018-Apr-12 19:09N 55°60' E 012°45'0 0.0
2018-Apr-12 17:33N 55°60' E 012°45'0 0.0
2018-Apr-12 17:21N 55°60' E 012°45'0 0.0
2018-Apr-12 16:57N 55°60' E 012°45'  
2018-Apr-09 23:03N 55°60' E 012°45'0 0.0
2018-Apr-09 22:54N 55°60' E 012°45'0 0.0
2018-Apr-09 21:12N 55°60' E 012°45'  
Track history (hours):
 
Tides and Currents Weather Stations Pressure Air Temp Water Temp Dewpoint Dewpoint Depression Visibility Wind Speed Wind Dir Waves Ship Positions

Siam

Last reported at 2018-Apr-19 11:58 UTC. Time now 2018-Apr-20 10:49 UTC.
Position N 55°60' E 012°45'.

Length 22 m.

Type: Passenger vessel. MMSI: 265572320.

Date/timePositionNaut miles runAvg speedWind from/ knotsBaromVisibWave heightAir tempDewpointWater temp
2018-Apr-19 11:58N 55°60' E 012°45'2 3.3
2018-Apr-19 11:21N 55°59' E 012°41'1 3.7
2018-Apr-19 11:00N 55°57' E 012°43'1 2.8
2018-Apr-19 10:30N 55°56' E 012°43'3 5.2
2018-Apr-19 09:59N 55°56' E 012°39'1 1.2
2018-Apr-19 09:30N 55°56' E 012°40'2 3.6
2018-Apr-19 09:00N 55°57' E 012°41'1 2.3
2018-Apr-19 08:30N 55°59' E 012°41'0 0.1
2018-Apr-19 07:57N 55°59' E 012°42'0 0.3
2018-Apr-19 07:30N 55°59' E 012°41'0 0.0
2018-Apr-19 06:59N 55°59' E 012°41'0 0.2
2018-Apr-19 06:30N 55°59' E 012°41'2 0.7
2018-Apr-19 03:40N 55°60' E 012°45'0 0.0
2018-Apr-19 03:22N 55°60' E 012°45'0 0.0
2018-Apr-19 02:58N 55°60' E 012°45'0 0.0
2018-Apr-19 02:28N 55°60' E 012°45'0 0.0
2018-Apr-19 01:37N 55°60' E 012°45'0 0.0
2018-Apr-19 01:16N 55°60' E 012°45'0 0.0
2018-Apr-19 00:52N 55°60' E 012°45'0 0.0
2018-Apr-19 00:28N 55°60' E 012°45'0 0.0
2018-Apr-18 23:58N 55°60' E 012°45'0 0.0
2018-Apr-18 22:04N 55°60' E 012°45'0 0.0
2018-Apr-18 13:45N 55°60' E 012°45'0 0.0
2018-Apr-18 11:41N 55°60' E 012°45'0 0.0
2018-Apr-18 11:17N 55°60' E 012°45'0 0.0
2018-Apr-18 10:59N 55°60' E 012°45'0 0.0
2018-Apr-18 09:59N 55°60' E 012°45'  
2018-Apr-15 13:22N 55°60' E 012°45'0 0.2
2018-Apr-15 13:00N 55°60' E 012°45'4 8.1
2018-Apr-15 12:31N 55°56' E 012°40'1 2.6
2018-Apr-15 11:58N 55°55' E 012°40'0 0.6
2018-Apr-15 11:28N 55°55' E 012°39'0 0.3
2018-Apr-15 10:57N 55°55' E 012°39'0 0.2
2018-Apr-15 10:29N 55°55' E 012°39'0 0.1
2018-Apr-15 09:55N 55°55' E 012°39'0 0.3
2018-Apr-15 09:30N 55°55' E 012°39'2 4.7
2018-Apr-15 09:00N 55°55' E 012°44'0 0.6
2018-Apr-15 08:30N 55°55' E 012°44'3 4.7
2018-Apr-15 07:58N 55°57' E 012°45'0 0.1
2018-Apr-15 07:25N 55°57' E 012°45'0 0.1
2018-Apr-15 06:47N 55°57' E 012°45'0 0.3
2018-Apr-15 06:30N 55°57' E 012°45'2 0.1
2018-Apr-14 10:05N 55°60' E 012°45'1 7.3
2018-Apr-14 09:59N 55°59' E 012°44'4 7.2
2018-Apr-14 09:29N 55°56' E 012°40'0 0.2
2018-Apr-14 09:00N 55°56' E 012°40'1 2.3
2018-Apr-14 08:30N 55°56' E 012°42'0 0.8
2018-Apr-14 07:59N 55°57' E 012°41'0 0.7
2018-Apr-14 07:30N 55°57' E 012°42'0 1.0
2018-Apr-14 07:00N 55°58' E 012°42'2 3.4
2018-Apr-14 06:27N 55°60' E 012°42'1 1.0
2018-Apr-14 04:57N 55°60' E 012°45'0 0.0
2018-Apr-14 04:24N 55°60' E 012°45'0 0.0
2018-Apr-14 03:54N 55°60' E 012°45'0 0.0
2018-Apr-14 03:03N 55°60' E 012°45'0 0.1
2018-Apr-14 03:00N 55°60' E 012°45'0 0.0
2018-Apr-14 02:27N 55°60' E 012°45'0 0.0
2018-Apr-14 01:51N 55°60' E 012°45'0 0.0
2018-Apr-14 01:27N 55°60' E 012°45'0 0.0
2018-Apr-14 00:39N 55°60' E 012°45'0 0.0
2018-Apr-13 23:21N 55°60' E 012°45'0 0.0
2018-Apr-13 20:39N 55°60' E 012°45'0 0.0
2018-Apr-13 20:15N 55°60' E 012°45'0 0.0
2018-Apr-13 19:21N 55°60' E 012°45'0 0.0
2018-Apr-13 14:27N 55°60' E 012°45'0 0.0
2018-Apr-13 13:12N 55°60' E 012°45'0 0.2
2018-Apr-13 12:47N 55°59' E 012°45'1 4.8
2018-Apr-13 12:29N 55°60' E 012°42'1 2.8
2018-Apr-13 12:00N 55°59' E 012°44'1 2.8
2018-Apr-13 11:29N 55°58' E 012°45'0 0.5
2018-Apr-13 11:00N 55°57' E 012°45'0 0.4
2018-Apr-13 10:28N 55°57' E 012°45'0 0.3
2018-Apr-13 10:00N 55°57' E 012°45'0 0.1
2018-Apr-13 09:29N 55°57' E 012°45'1 2.1
2018-Apr-13 08:59N 55°56' E 012°46'0 0.2
2018-Apr-13 08:26N 55°56' E 012°46'0 0.0
2018-Apr-13 07:46N 55°57' E 012°46'1 2.7
2018-Apr-13 07:15N 55°55' E 012°46'2 2.4
2018-Apr-13 06:19N 55°57' E 012°45'2 0.2
2018-Apr-12 19:09N 55°60' E 012°45'0 0.0
2018-Apr-12 17:33N 55°60' E 012°45'0 0.0
2018-Apr-12 17:21N 55°60' E 012°45'0 0.0
2018-Apr-12 16:57N 55°60' E 012°45'  
2018-Apr-09 23:03N 55°60' E 012°45'0 0.0
2018-Apr-09 22:54N 55°60' E 012°45'0 0.0
2018-Apr-09 21:12N 55°60' E 012°45'  

Dump ship's entire track history